Accueil
METAR-TAF:

METAR-TAF

Aéroports :

Aéroport régional de Lawton-Fort Sill

Lawton, Oklahoma, États-Unis

latitude: 34-33-27N, longitude: 098-25-00W, altitude: 338 m

Observation

Le bulletin a été fait il y a 25 minutes, à 18:53 UTC
Vent 5 kt de direction variable
Température 36°C
Humidité 35%
Pression 1015 hPa
Visibilité: 16.1 km
Ciel clair

METAR: KLAW 151853Z VRB05KT 10SM CLR 36/18 A2998 RMK AO2 SLP134 T03610178

Heure: 14:18 (19:18 UTC)

Prévision

Le bulletin a été fait il y a 1 heure et 58 minutes, à 17:20 UTC
Prévision valable du 15 à 18 UTC au 16 à 18 UTC
Vent 6 kt de sud
Visibilité: 10 km
Nuages épars à une hauteur de 7000 ft
Nuages fragmentés à une hauteur de 12000 ft

TAF: KLAW 151720Z 1518/1618 17006KT P6SM SCT070 BKN120

Observations et prévisions météorologiques de plus de 4000 aéroports (messages METAR et TAF).

Les stations disponibles sont représentées par des disques jaunes et rouges sur la carte.

Passer la souris dessus pour voir le nom de la station.

Cliquer dessus pour voir les observations et prévisions météorologiques.

Pour changer de carte: cliquez sur les boutons verts avec une croix noire pour zoomer, sur le bouton vert avec un tiret pour effectuer un zoom arrière, ou sur les flèches vertes pour les cartes adjacentes.


METAR-TAF: